Warning: Javascript must be enabled to use all the features on this page!


Page Loading - Please Wait...

Click to hideNews Bulletins

Peak Streamflow for Puerto Rico

Click to hide state-specific text

 


USGS 50063440 QUEBRADA SONADORA NR EL VERDE, PR

Rio Grande Municipio, Puerto Rico
Hydrologic Unit Code 21010005
Latitude  18°19'23.64", Longitude  65°49'02.89" NAD27
Drainage area 0.92  square miles
Gage datum 1,230 feet above NGVD29
Output formats
Table
Graph
Tab-separated file
peakfq (watstore) format
Reselect output format
Water
Year
Date Gage
Height
(feet)
Stream-
flow
(cfs)
1984 1983-12-02 8.60 1,260
1985 1985-05-14 9.36 1,820
1986 1986-08-24 9.32 1,790
1987 1987-04-12 7.41 645
1988 1987-12-07 9.42 2,230
1989 1989-09-18 8.72 1,340
1990 1990-08-13 7.69 786
1991 1990-10-07 6.91 440
1992 1992-05-01 8.14 993
1993 1993-09-15 7.56 688
1994 1993-10-22 7.20 537
1995 1994-10-20 7.56 685
1996 1996-04-04 8.09 963
1997 1997-07-21 7.39 614
1998 1998-09-21 7.39 614
1999 1999-01-14 8.07 952
2000 1999-12-02 9.062,5 1,5802
2002 2001-11-07 7.39 611
2003 2003-04-17 8.82 1,410
2004 2004-09-15 8.84 1,420
2005 2005-08-20 6.79 397
2006 2006-04-21 7.98 899
2007 2007-07-17 7.15 517
2008 2008-09-03 6.73 373
2009 2009-07-21 7.14 513
2010 2010-05-08 7.00 464
2011 2011-08-22 7.78 792
2012 2012-03-30 8.91 1,470
2013 2013-03-29 7.89 850
2014 2014-05-10 7.85 828
?
  Peak Gage-Height Qualification Codes.
?
  Peak Streamflow Qualification Codes.